Time;durP1;ratioP1;P1;durP2;ratioP2;P2;SDS_P1;SDS_P2;PMS_P1;PMS_P2;Temp;Humidity;BMP_temperature;BMP_pressure;BME280_temperature;BME280_humidity;BME280_pressure;Samples;Min_cycle;Max_cycle;Signal;HPM_P1;HPM_P2
2023/08/18 00:00:42;;;;;;;4.10;3.50;;;21.40;99.90;;;;;;5067988;28;20217;-69
2023/08/18 00:03:08;;;;;;;5.93;4.00;;;21.30;99.90;;;;;;5049838;28;20471;-68
2023/08/18 00:05:33;;;;;;;8.13;4.10;;;21.20;99.90;;;;;;5068231;28;20938;-68
2023/08/18 00:07:59;;;;;;;4.53;3.77;;;21.10;99.90;;;;;;5067975;28;20265;-68
2023/08/18 00:10:24;;;;;;;7.70;4.20;;;21.10;99.90;;;;;;5067958;28;20191;-67
2023/08/18 00:12:50;;;;;;;5.30;3.47;;;21.10;99.90;;;;;;5067814;28;20580;-68
2023/08/18 00:15:16;;;;;;;5.70;3.50;;;21.10;99.90;;;;;;5068119;28;20189;-68
2023/08/18 00:17:42;;;;;;;4.10;3.60;;;21.10;99.90;;;;;;5067901;28;20185;-68
2023/08/18 00:20:09;;;;;;;9.30;3.30;;;21.20;99.90;;;;;;5049770;28;20250;-68
2023/08/18 00:22:34;;;;;;;8.73;3.67;;;21.10;99.90;;;;;;5067732;28;20449;-68
2023/08/18 00:25:00;;;;;;;6.80;3.93;;;21.10;99.90;;;;;;5067752;28;20429;-68
2023/08/18 00:27:25;;;;;;;12.87;3.93;;;21.10;99.90;;;;;;5067816;28;20185;-68
2023/08/18 00:29:51;;;;;;;6.80;4.47;;;21.00;99.90;;;;;;5069337;28;20197;-68
2023/08/18 00:32:17;;;;;;;4.93;3.60;;;21.00;99.90;;;;;;5071449;28;20211;-68
2023/08/18 00:34:43;;;;;;;8.63;3.97;;;20.90;99.90;;;;;;5071420;28;20190;-68
2023/08/18 00:37:08;;;;;;;9.03;3.50;;;20.80;99.90;;;;;;5071471;28;20492;-68
2023/08/18 00:39:34;;;;;;;6.60;4.10;;;20.80;99.90;;;;;;5071201;28;20222;-68
2023/08/18 00:41:59;;;;;;;4.67;3.63;;;20.70;99.90;;;;;;5071208;28;20223;-68
2023/08/18 00:44:25;;;;;;;7.63;3.80;;;20.70;99.90;;;;;;5071579;28;20188;-68
2023/08/18 00:46:51;;;;;;;6.77;3.80;;;20.60;99.90;;;;;;5071302;28;20191;-68
2023/08/18 00:49:18;;;;;;;5.70;4.20;;;20.60;99.90;;;;;;5071141;28;20183;-68
2023/08/18 00:51:45;;;;;;;5.00;3.40;;;20.60;99.90;;;;;;5071044;28;20200;-68
2023/08/18 00:54:12;;;;;;;4.70;3.27;;;20.70;99.90;;;;;;5071228;28;21103;-68
2023/08/18 00:56:38;;;;;;;7.93;2.73;;;20.80;99.90;;;;;;5053236;28;20421;-68
2023/08/18 00:59:05;;;;;;;5.70;3.17;;;20.90;99.90;;;;;;5070938;28;20506;-68
2023/08/18 01:01:32;;;;;;;5.30;3.43;;;21.00;99.90;;;;;;5070889;28;20417;-68
2023/08/18 01:03:58;;;;;;;6.97;3.33;;;21.00;99.90;;;;;;5070934;28;20841;-68
2023/08/18 01:06:23;;;;;;;6.40;3.13;;;21.10;99.90;;;;;;5071249;28;20419;-68
2023/08/18 01:08:50;;;;;;;5.70;2.83;;;21.00;99.90;;;;;;5071041;28;20217;-68
2023/08/18 01:12:07;;;;;;;9.03;3.20;;;21.00;99.90;;;;;;5071143;28;20225;-67
2023/08/18 01:14:45;;;;;;;6.50;3.30;;;20.80;99.90;;;;;;5026487;28;20449;-67
2023/08/18 01:17:24;;;;;;;7.43;3.10;;;20.70;99.90;;;;;;5071449;28;20415;-67
2023/08/18 01:19:51;;;;;;;4.40;2.97;;;20.60;99.90;;;;;;5071502;28;20467;-67
2023/08/18 01:22:18;;;;;;;4.00;3.07;;;20.60;99.90;;;;;;5071523;28;20442;-67
2023/08/18 01:24:44;;;;;;;13.30;3.33;;;20.60;99.90;;;;;;5071562;28;20417;-67
2023/08/18 01:27:10;;;;;;;6.30;3.00;;;20.50;99.90;;;;;;5071490;28;20443;-67
2023/08/18 01:29:36;;;;;;;6.63;3.60;;;20.50;99.90;;;;;;5071386;28;20597;-67
2023/08/18 01:32:06;;;;;;;6.20;2.87;;;20.50;99.90;;;;;;5071404;28;20711;-67
2023/08/18 01:34:38;;;;;;;4.10;2.83;;;20.60;99.90;;;;;;5071438;28;20271;-67
2023/08/18 01:37:04;;;;;;;5.00;3.03;;;20.60;99.90;;;;;;5071179;28;20417;-67
2023/08/18 01:39:31;;;;;;;7.70;3.33;;;20.60;99.90;;;;;;5070908;28;20876;-67
2023/08/18 01:41:57;;;;;;;5.30;3.20;;;20.60;99.90;;;;;;5070515;28;20196;-67
2023/08/18 01:44:22;;;;;;;10.73;3.40;;;20.60;99.90;;;;;;5070782;28;20420;-68
2023/08/18 01:46:48;;;;;;;13.00;3.20;;;20.50;99.90;;;;;;5070510;28;20183;-67
2023/08/18 01:49:14;;;;;;;5.73;3.43;;;20.30;99.90;;;;;;5070412;28;20203;-67
2023/08/18 01:51:40;;;;;;;7.17;3.67;;;20.20;99.90;;;;;;5070157;28;20237;-67
2023/08/18 01:54:06;;;;;;;2.70;2.47;;;20.20;99.90;;;;;;5070318;28;20536;-68
2023/08/18 01:56:31;;;;;;;6.93;3.07;;;20.20;99.90;;;;;;5070232;28;20984;-68
2023/08/18 01:58:57;;;;;;;7.27;2.90;;;20.20;99.90;;;;;;5069977;28;20221;-68
2023/08/18 02:01:22;;;;;;;4.00;2.60;;;20.20;99.90;;;;;;5070084;28;20179;-68
2023/08/18 02:03:48;;;;;;;3.27;2.43;;;20.20;99.90;;;;;;5070066;28;20183;-69
2023/08/18 02:06:14;;;;;;;2.93;2.50;;;20.10;99.90;;;;;;5070084;28;20603;-67
2023/08/18 02:08:39;;;;;;;4.37;2.53;;;20.10;99.90;;;;;;5069875;28;20218;-68
2023/08/18 02:11:06;;;;;;;4.30;2.53;;;20.20;99.90;;;;;;5069897;28;20241;-67
2023/08/18 02:13:32;;;;;;;5.60;2.90;;;20.30;99.90;;;;;;5069756;28;20724;-67
2023/08/18 02:15:59;;;;;;;9.77;3.27;;;20.30;99.90;;;;;;5069596;28;20440;-68
2023/08/18 02:18:24;;;;;;;4.30;2.80;;;20.30;99.90;;;;;;5069574;28;20933;-68
2023/08/18 02:21:00;;;;;;;5.10;2.60;;;20.40;99.90;;;;;;5069589;28;20435;-68
2023/08/18 02:23:26;;;;;;;4.17;2.40;;;20.40;99.90;;;;;;5069464;28;20717;-68
2023/08/18 02:25:59;;;;;;;6.93;2.67;;;20.40;99.90;;;;;;5069527;28;20419;-67
2023/08/18 02:28:24;;;;;;;3.20;2.17;;;20.40;99.90;;;;;;5069645;28;20421;-67
2023/08/18 02:31:02;;;;;;;4.50;2.17;;;20.50;99.90;;;;;;5069301;28;21096;-68
2023/08/18 02:33:28;;;;;;;6.17;3.13;;;20.40;99.90;;;;;;5069139;28;20202;-67
2023/08/18 02:35:54;;;;;;;9.00;2.50;;;20.40;99.90;;;;;;5069368;28;20555;-67
2023/08/18 02:38:20;;;;;;;4.80;2.90;;;20.50;99.90;;;;;;5069215;28;20442;-68
2023/08/18 02:40:45;;;;;;;10.10;3.10;;;20.40;99.90;;;;;;5069205;28;20194;-68
2023/08/18 02:43:11;;;;;;;4.20;2.40;;;20.40;99.90;;;;;;5050999;28;20612;-68
2023/08/18 02:45:37;;;;;;;5.60;2.67;;;20.30;99.90;;;;;;5068974;28;20218;-68
2023/08/18 02:48:04;;;;;;;3.17;2.33;;;20.20;99.90;;;;;;5051021;28;20954;-68
2023/08/18 02:50:30;;;;;;;5.47;2.83;;;20.10;99.90;;;;;;5069108;28;20191;-68
2023/08/18 02:53:00;;;;;;;4.10;2.67;;;20.10;99.90;;;;;;5068274;28;20448;-67
2023/08/18 02:55:26;;;;;;;6.20;3.07;;;20.20;99.90;;;;;;5068988;28;20461;-68
2023/08/18 02:57:51;;;;;;;4.07;3.00;;;20.20;99.90;;;;;;5069072;28;20461;-68
2023/08/18 03:00:17;;;;;;;4.17;2.60;;;20.10;99.90;;;;;;5068985;28;20219;-68
2023/08/18 03:02:46;;;;;;;3.20;2.70;;;20.20;99.90;;;;;;5069159;28;20202;-68
2023/08/18 03:05:12;;;;;;;7.67;2.67;;;20.30;99.90;;;;;;5069310;28;20590;-67
2023/08/18 03:07:37;;;;;;;5.50;2.63;;;20.30;99.90;;;;;;5069374;28;20439;-68
2023/08/18 03:10:03;;;;;;;4.83;2.10;;;20.40;99.90;;;;;;5034636;28;20183;-67
2023/08/18 03:12:29;;;;;;;2.50;2.30;;;20.40;99.90;;;;;;5069317;28;20735;-67
2023/08/18 03:14:55;;;;;;;3.37;2.57;;;20.40;99.90;;;;;;5069546;28;20425;-67
2023/08/18 03:17:20;;;;;;;5.03;2.40;;;20.40;99.90;;;;;;5069507;28;20183;-67
2023/08/18 03:19:46;;;;;;;2.87;2.10;;;20.30;99.90;;;;;;5069390;28;20671;-67
2023/08/18 03:22:11;;;;;;;2.23;1.80;;;20.40;99.90;;;;;;5051395;28;20217;-67
2023/08/18 03:24:37;;;;;;;5.23;2.40;;;20.40;99.90;;;;;;5069404;28;20588;-67
2023/08/18 03:27:03;;;;;;;3.47;2.60;;;20.30;99.90;;;;;;5051562;28;20212;-67
2023/08/18 03:29:29;;;;;;;3.40;1.73;;;20.30;99.90;;;;;;5069255;28;20455;-67
2023/08/18 03:31:54;;;;;;;3.47;2.20;;;20.40;99.90;;;;;;5069153;28;20684;-68
2023/08/18 03:34:20;;;;;;;1.93;1.77;;;20.30;99.90;;;;;;5068305;28;20248;-69
2023/08/18 03:36:46;;;;;;;3.00;2.20;;;20.10;99.90;;;;;;5068405;28;20211;-68
2023/08/18 03:39:12;;;;;;;2.40;2.20;;;20.10;99.90;;;;;;5068337;28;20241;-68
2023/08/18 03:41:38;;;;;;;3.73;2.50;;;20.00;99.90;;;;;;5068427;28;20604;-68
2023/08/18 03:44:04;;;;;;;2.60;2.00;;;19.90;99.90;;;;;;5068322;28;20413;-68
2023/08/18 03:46:30;;;;;;;3.70;2.30;;;20.10;99.90;;;;;;5068276;28;20497;-67
2023/08/18 03:48:55;;;;;;;5.40;2.57;;;20.20;99.90;;;;;;5068132;28;20919;-68
2023/08/18 03:51:21;;;;;;;4.20;3.17;;;20.20;99.90;;;;;;5068042;28;20205;-68
2023/08/18 03:53:47;;;;;;;5.57;2.97;;;20.30;99.90;;;;;;5066742;28;20456;-67
2023/08/18 03:56:13;;;;;;;3.97;2.10;;;20.30;99.90;;;;;;5066779;28;20197;-66
2023/08/18 03:58:39;;;;;;;5.93;2.40;;;20.20;99.90;;;;;;5066550;28;20554;-67
2023/08/18 04:01:10;;;;;;;5.20;2.63;;;20.10;99.90;;;;;;5048581;28;20194;-67
2023/08/18 04:03:37;;;;;;;2.23;1.80;;;20.10;99.90;;;;;;5067759;28;20935;-67
2023/08/18 04:06:03;;;;;;;4.47;2.23;;;20.20;99.90;;;;;;5070572;28;20422;-66
2023/08/18 04:08:40;;;;;;;3.60;1.97;;;20.30;99.90;;;;;;5070482;28;20421;-67
2023/08/18 04:11:05;;;;;;;5.53;2.40;;;20.40;99.90;;;;;;5070362;28;20504;-66
2023/08/18 04:13:31;;;;;;;5.80;2.30;;;20.50;99.90;;;;;;5070307;28;20932;-66
2023/08/18 04:15:57;;;;;;;5.33;2.40;;;20.40;99.90;;;;;;5070752;28;20183;-66
2023/08/18 04:18:23;;;;;;;4.73;2.50;;;20.30;99.90;;;;;;5070245;28;20228;-67
2023/08/18 04:20:48;;;;;;;2.67;2.17;;;20.20;99.90;;;;;;5070283;28;20406;-67
2023/08/18 04:23:14;;;;;;;4.80;2.40;;;20.00;99.90;;;;;;5070485;28;20441;-67
2023/08/18 04:25:43;;;;;;;3.90;2.30;;;20.00;99.90;;;;;;5070115;28;20304;-66
2023/08/18 04:28:09;;;;;;;3.90;2.50;;;19.70;99.90;;;;;;5052262;28;20188;-67
2023/08/18 04:30:35;;;;;;;2.80;2.07;;;19.60;99.90;;;;;;5070136;28;20445;-67
2023/08/18 04:33:01;;;;;;;4.30;2.07;;;19.60;99.90;;;;;;5069995;28;20195;-67
2023/08/18 04:35:26;;;;;;;4.47;2.70;;;19.50;99.90;;;;;;5070211;28;20876;-67
2023/08/18 04:37:52;;;;;;;3.07;2.50;;;19.40;99.90;;;;;;5051669;28;20553;-66
2023/08/18 04:40:18;;;;;;;5.80;2.50;;;19.30;99.90;;;;;;5069811;28;20692;-67
2023/08/18 04:42:44;;;;;;;8.73;2.77;;;19.20;99.90;;;;;;5070144;28;20536;-66
2023/08/18 04:45:10;;;;;;;7.70;3.33;;;19.20;99.90;;;;;;5070416;28;20190;-66
2023/08/18 04:47:35;;;;;;;4.40;2.60;;;19.20;99.90;;;;;;5070552;28;20699;-66
2023/08/18 04:50:03;;;;;;;7.13;3.00;;;19.10;99.90;;;;;;5070285;28;20191;-66
2023/08/18 04:52:28;;;;;;;4.63;2.90;;;19.10;99.90;;;;;;5070236;28;20217;-67
2023/08/18 04:54:54;;;;;;;4.33;3.03;;;19.10;99.90;;;;;;5070040;28;20480;-66
2023/08/18 04:57:19;;;;;;;8.53;3.60;;;19.00;99.90;;;;;;5070081;28;20197;-65
2023/08/18 04:59:45;;;;;;;4.40;3.70;;;18.90;99.90;;;;;;5069955;28;20763;-65
2023/08/18 05:02:10;;;;;;;6.80;4.20;;;18.90;99.90;;;;;;5069932;28;20212;-66
2023/08/18 05:04:36;;;;;;;6.13;4.00;;;18.90;99.90;;;;;;5052116;28;20190;-66
2023/08/18 05:07:02;;;;;;;3.80;3.27;;;18.90;99.90;;;;;;5070291;28;20189;-67
2023/08/18 05:09:28;;;;;;;6.87;3.60;;;18.90;99.90;;;;;;5070094;28;20248;-68
2023/08/18 05:11:53;;;;;;;5.90;3.80;;;18.80;99.90;;;;;;5070192;28;20210;-68
2023/08/18 05:14:19;;;;;;;5.47;3.90;;;18.70;99.90;;;;;;5070173;28;20191;-66
2023/08/18 05:16:45;;;;;;;4.90;3.00;;;18.60;99.90;;;;;;5069535;28;20646;-66
2023/08/18 05:19:10;;;;;;;8.33;3.97;;;18.60;99.90;;;;;;5051943;28;20222;-66
2023/08/18 05:21:36;;;;;;;5.57;3.37;;;18.70;99.90;;;;;;5070178;28;20449;-66
2023/08/18 05:24:02;;;;;;;4.57;4.10;;;18.70;99.90;;;;;;5051861;28;20185;-66
2023/08/18 05:26:27;;;;;;;7.50;4.30;;;18.80;99.90;;;;;;5070106;28;20656;-66
2023/08/18 05:28:53;;;;;;;5.70;3.43;;;18.90;99.90;;;;;;5069985;28;20574;-65
2023/08/18 05:31:19;;;;;;;6.47;4.00;;;19.00;99.90;;;;;;5069412;28;20209;-66
2023/08/18 05:33:44;;;;;;;10.70;4.97;;;19.00;99.90;;;;;;5069472;28;20185;-66
2023/08/18 05:36:10;;;;;;;7.70;3.80;;;19.10;99.90;;;;;;5069518;28;20193;-67
2023/08/18 05:38:35;;;;;;;6.83;4.33;;;19.10;99.90;;;;;;5069320;28;20613;-66
2023/08/18 05:41:06;;;;;;;6.20;3.90;;;19.20;99.90;;;;;;5069236;28;20189;-66
2023/08/18 05:43:35;;;;;;;7.53;4.20;;;19.30;99.90;;;;;;5068928;28;20607;-65
2023/08/18 05:46:01;;;;;;;7.60;4.20;;;19.30;99.90;;;;;;5068740;28;20406;-66
2023/08/18 05:48:26;;;;;;;5.47;4.37;;;19.30;99.90;;;;;;5069456;28;20738;-66
2023/08/18 05:50:52;;;;;;;4.90;4.03;;;19.30;99.90;;;;;;5069515;28;20260;-65
2023/08/18 05:53:18;;;;;;;10.27;4.53;;;19.40;99.90;;;;;;5069364;28;20199;-66
2023/08/18 05:55:45;;;;;;;6.37;4.87;;;19.50;99.90;;;;;;5069434;28;20744;-66
2023/08/18 05:58:11;;;;;;;5.73;4.03;;;19.50;99.90;;;;;;5051948;28;20963;-67
2023/08/18 06:00:36;;;;;;;6.37;4.30;;;19.60;99.90;;;;;;5069794;28;20457;-66
2023/08/18 06:03:02;;;;;;;6.13;4.87;;;19.70;99.90;;;;;;5069878;28;20218;-66
2023/08/18 06:05:28;;;;;;;6.57;4.23;;;19.80;99.90;;;;;;5070034;28;20191;-67
2023/08/18 06:07:54;;;;;;;8.70;3.90;;;19.80;99.90;;;;;;5051828;28;20187;-67
2023/08/18 06:10:20;;;;;;;4.60;3.80;;;20.10;99.90;;;;;;5070377;28;20449;-67
2023/08/18 06:12:46;;;;;;;10.90;5.00;;;20.10;99.90;;;;;;5069693;28;20461;-66
2023/08/18 06:15:12;;;;;;;6.20;4.33;;;20.30;99.90;;;;;;5069493;28;20184;-66
2023/08/18 06:17:38;;;;;;;6.57;4.03;;;20.30;99.90;;;;;;5069477;28;20630;-66
2023/08/18 06:20:04;;;;;;;5.20;3.70;;;20.40;99.90;;;;;;5069321;28;20556;-66
2023/08/18 06:22:30;;;;;;;7.43;3.80;;;20.50;99.90;;;;;;5069050;28;20278;-67
2023/08/18 06:24:56;;;;;;;4.23;3.83;;;20.60;99.90;;;;;;5069068;28;20409;-66
2023/08/18 06:27:21;;;;;;;6.93;3.80;;;20.70;99.90;;;;;;5068042;28;20446;-66
2023/08/18 06:29:47;;;;;;;6.90;4.03;;;20.70;99.90;;;;;;5068860;28;20199;-66
2023/08/18 06:32:12;;;;;;;9.73;3.40;;;20.90;99.90;;;;;;5068776;28;20223;-66
2023/08/18 06:34:38;;;;;;;5.23;3.67;;;21.00;99.90;;;;;;5068699;28;20274;-67
2023/08/18 06:37:04;;;;;;;6.07;3.43;;;21.20;99.90;;;;;;5068374;28;20214;-66
2023/08/18 06:39:29;;;;;;;4.70;3.20;;;21.30;99.90;;;;;;5068326;28;20719;-66
2023/08/18 06:41:55;;;;;;;5.87;4.00;;;21.30;99.90;;;;;;5068300;28;20203;-66
2023/08/18 06:44:21;;;;;;;6.50;3.70;;;21.30;99.90;;;;;;5068198;28;20184;-66
2023/08/18 06:46:47;;;;;;;9.60;3.17;;;21.30;99.90;;;;;;5068332;28;20824;-66
2023/08/18 06:49:12;;;;;;;5.03;3.37;;;21.50;99.90;;;;;;5068068;28;20795;-67
2023/08/18 06:51:38;;;;;;;4.83;3.43;;;21.40;99.90;;;;;;5068144;28;20446;-66
2023/08/18 06:54:04;;;;;;;8.07;3.60;;;21.50;99.90;;;;;;5095831;22;20709;-78
2023/08/18 06:56:30;;;;;;;6.00;3.20;;;21.50;99.90;;;;;;5069299;28;20254;-80
2023/08/18 06:58:55;;;;;;;9.33;3.37;;;21.50;99.90;;;;;;5051267;28;20558;-79
2023/08/18 07:01:21;;;;;;;5.87;3.30;;;21.50;99.90;;;;;;5051348;28;20183;-78
2023/08/18 07:03:48;;;;;;;4.90;3.30;;;21.50;99.90;;;;;;5049976;28;20203;-78
2023/08/18 07:06:13;;;;;;;6.33;4.00;;;21.60;99.90;;;;;;5069060;28;20563;-81
2023/08/18 07:08:39;;;;;;;12.50;3.80;;;21.60;99.90;;;;;;5069231;28;20420;-77
2023/08/18 07:11:05;;;;;;;9.77;3.93;;;21.60;99.90;;;;;;5068900;28;20425;-77
2023/08/18 07:13:30;;;;;;;5.60;4.10;;;21.60;99.90;;;;;;5068987;28;20283;-77
2023/08/18 07:15:56;;;;;;;3.60;3.27;;;21.70;99.90;;;;;;5051624;28;20190;-77
2023/08/18 07:18:22;;;;;;;3.83;3.13;;;21.70;99.90;;;;;;5050987;28;20563;-80
2023/08/18 07:20:47;;;;;;;5.53;3.30;;;21.80;99.90;;;;;;5050719;28;20226;-77
2023/08/18 07:23:13;;;;;;;5.80;3.50;;;21.80;99.90;;;;;;5050897;28;20204;-79
2023/08/18 07:25:39;;;;;;;11.27;3.27;;;21.80;99.90;;;;;;5068574;28;20182;-79
2023/08/18 07:28:05;;;;;;;4.60;2.90;;;21.80;99.90;;;;;;5051156;28;20415;-77
2023/08/18 07:30:31;;;;;;;5.53;3.23;;;21.90;99.90;;;;;;5068773;28;20191;-78
2023/08/18 07:32:57;;;;;;;6.00;3.13;;;21.90;99.90;;;;;;5069170;28;20421;-78
2023/08/18 07:35:23;;;;;;;5.80;3.30;;;21.90;99.90;;;;;;5069202;28;20427;-78
2023/08/18 07:37:49;;;;;;;8.53;3.40;;;22.00;99.90;;;;;;5069287;28;20211;-78
2023/08/18 07:40:15;;;;;;;4.07;2.80;;;22.10;99.90;;;;;;5069031;28;20509;-81
2023/08/18 07:42:40;;;;;;;5.73;2.73;;;22.20;99.90;;;;;;5051383;28;21074;-78
2023/08/18 07:45:07;;;;;;;8.70;3.33;;;22.30;99.90;;;;;;5050934;28;20277;-80
2023/08/18 07:47:38;;;;;;;6.30;2.97;;;22.20;99.90;;;;;;5051185;28;20295;-79
2023/08/18 07:50:11;;;;;;;3.73;2.50;;;22.20;99.90;;;;;;5069231;28;20420;-78
2023/08/18 07:52:37;;;;;;;8.10;3.37;;;22.30;99.90;;;;;;5069812;28;20418;-78
2023/08/18 07:55:04;;;;;;;3.20;2.20;;;22.50;99.90;;;;;;5069503;28;20455;-80
2023/08/18 07:57:29;;;;;;;6.93;3.13;;;22.60;99.90;;;;;;5069598;28;21007;-79
2023/08/18 07:59:56;;;;;;;5.07;2.87;;;22.70;99.90;;;;;;5070085;28;20460;-78
2023/08/18 08:02:21;;;;;;;4.80;2.73;;;22.70;99.90;;;;;;5069762;28;20174;-78
2023/08/18 08:04:47;;;;;;;5.13;3.00;;;22.80;99.90;;;;;;5069015;28;20785;-79
2023/08/18 08:07:13;;;;;;;3.07;2.73;;;22.90;99.90;;;;;;5069006;28;20192;-78
2023/08/18 08:09:39;;;;;;;5.07;3.00;;;23.00;99.90;;;;;;5068796;28;20724;-78
2023/08/18 08:12:05;;;;;;;4.77;2.70;;;23.20;99.90;;;;;;5068644;28;20200;-79
2023/08/18 08:14:30;;;;;;;3.70;2.67;;;23.30;99.90;;;;;;5050361;28;21107;-78
2023/08/18 08:16:56;;;;;;;5.00;2.50;;;23.40;99.90;;;;;;5068671;28;20183;-79
2023/08/18 08:19:22;;;;;;;3.13;2.83;;;23.60;99.90;;;;;;5068272;28;20213;-79
2023/08/18 08:21:47;;;;;;;5.60;3.00;;;23.70;99.90;;;;;;5050336;28;20186;-78
2023/08/18 08:24:13;;;;;;;2.60;2.40;;;23.80;99.90;;;;;;5068215;28;20219;-79
2023/08/18 08:26:39;;;;;;;4.43;2.73;;;24.00;99.90;;;;;;5050227;28;20183;-79
2023/08/18 08:29:04;;;;;;;7.17;3.23;;;24.10;99.90;;;;;;5068489;28;20213;-78
2023/08/18 08:31:31;;;;;;;3.73;3.00;;;24.20;99.90;;;;;;5068449;28;20424;-78
2023/08/18 08:33:57;;;;;;;8.10;2.50;;;24.30;99.90;;;;;;5068170;28;20575;-78
2023/08/18 08:36:23;;;;;;;4.30;2.97;;;24.50;99.90;;;;;;5049956;28;20458;-78
2023/08/18 08:38:48;;;;;;;7.30;2.87;;;24.60;99.90;;;;;;5049912;28;20440;-78
2023/08/18 08:41:14;;;;;;;3.10;2.40;;;24.70;99.90;;;;;;5049512;28;20182;-79
2023/08/18 08:43:40;;;;;;;6.07;2.87;;;24.80;99.90;;;;;;5049436;28;20218;-78
2023/08/18 08:46:07;;;;;;;11.00;3.30;;;24.90;99.90;;;;;;5032996;28;20185;-78
2023/08/18 08:48:44;;;;;;;4.43;2.77;;;25.00;99.90;;;;;;5067948;28;20185;-78
2023/08/18 08:51:11;;;;;;;9.83;2.40;;;25.20;99.90;;;;;;5053270;28;20422;-80
2023/08/18 08:53:47;;;;;;;6.93;2.80;;;25.40;99.90;;;;;;5036440;28;20536;-79
2023/08/18 08:56:14;;;;;;;6.00;2.57;;;25.60;99.90;;;;;;5053301;28;20490;-78
2023/08/18 08:58:41;;;;;;;4.60;2.27;;;25.70;99.90;;;;;;5071271;28;20413;-79
2023/08/18 09:01:07;;;;;;;4.87;2.77;;;25.80;99.90;;;;;;5053191;28;20429;-79
2023/08/18 09:03:34;;;;;;;2.67;2.43;;;26.00;99.90;;;;;;5071315;28;20436;-77
2023/08/18 09:05:59;;;;;;;4.83;2.63;;;26.20;99.90;;;;;;5070971;28;20178;-78
2023/08/18 09:08:25;;;;;;;4.63;2.80;;;26.40;99.90;;;;;;5053574;28;20414;-78
2023/08/18 09:10:51;;;;;;;7.07;2.00;;;26.80;99.90;;;;;;5053382;28;20183;-79
2023/08/18 09:13:16;;;;;;;4.53;2.53;;;27.00;99.90;;;;;;5053084;28;20593;-78
2023/08/18 09:15:47;;;;;;;6.50;2.50;;;27.40;99.90;;;;;;5071321;28;20714;-79
2023/08/18 09:18:14;;;;;;;7.17;1.80;;;27.70;99.90;;;;;;5053969;28;20179;-78
2023/08/18 09:20:41;;;;;;;7.03;2.30;;;28.10;99.90;;;;;;5052610;28;21111;-78
2023/08/18 09:23:07;;;;;;;3.17;2.00;;;28.40;99.90;;;;;;5052632;28;20453;-78
2023/08/18 09:25:36;;;;;;;4.73;2.93;;;28.60;99.90;;;;;;5070830;28;20413;-78
2023/08/18 09:28:04;;;;;;;3.53;2.73;;;29.00;99.90;;;;;;5071138;28;20175;-79
2023/08/18 09:30:30;;;;;;;4.80;1.93;;;29.20;99.90;;;;;;5070622;28;20471;-78
2023/08/18 09:32:59;;;;;;;2.93;2.20;;;29.40;99.90;;;;;;5052417;28;20421;-79
2023/08/18 09:35:25;;;;;;;4.13;2.30;;;29.60;99.90;;;;;;5052376;28;20432;-79
2023/08/18 09:37:57;;;;;;;3.70;2.07;;;29.80;99.90;;;;;;5052158;28;20425;-79
2023/08/18 09:40:24;;;;;;;3.23;1.70;;;30.00;99.90;;;;;;5051680;28;20210;-79
2023/08/18 09:42:50;;;;;;;1.77;1.67;;;30.40;99.90;;;;;;5069732;28;20416;-79
2023/08/18 09:45:15;;;;;;;4.10;2.10;;;30.80;99.90;;;;;;5051863;28;20425;-80
2023/08/18 09:47:42;;;;;;;3.10;2.17;;;30.80;99.90;;;;;;5051624;28;20186;-78
2023/08/18 09:50:10;;;;;;;8.33;2.10;;;31.10;99.90;;;;;;5070132;28;20175;-78
2023/08/18 09:52:38;;;;;;;4.27;1.60;;;31.40;99.90;;;;;;5070306;28;20901;-78
2023/08/18 09:55:28;;;;;;;3.30;1.50;;;31.80;99.90;;;;;;5069185;28;20460;-78
2023/08/18 09:58:09;;;;;;;2.10;1.40;;;32.10;99.90;;;;;;5069726;28;20918;-78
2023/08/18 10:00:38;;;;;;;3.23;1.50;;;32.20;99.90;;;;;;5070010;28;20461;-79
2023/08/18 10:03:07;;;;;;;3.60;1.23;;;32.30;98.50;;;;;;5069438;28;20495;-81
2023/08/18 10:05:34;;;;;;;1.80;1.40;;;32.60;97.30;;;;;;5051262;28;20905;-80
2023/08/18 10:08:02;;;;;;;7.03;1.53;;;32.80;97.10;;;;;;5069241;28;20439;-80
2023/08/18 10:10:28;;;;;;;6.63;1.67;;;32.90;98.00;;;;;;5051732;28;20437;-80
2023/08/18 10:12:54;;;;;;;3.50;1.67;;;32.90;98.60;;;;;;5051968;28;20483;-81
2023/08/18 10:15:20;;;;;;;4.57;1.70;;;32.40;96.50;;;;;;5051337;28;20707;-81
2023/08/18 10:17:46;;;;;;;2.70;1.63;;;32.20;96.10;;;;;;5051086;28;20988;-80
2023/08/18 10:20:12;;;;;;;4.43;1.60;;;31.90;96.10;;;;;;5050935;28;20457;-80
2023/08/18 10:22:39;;;;;;;4.97;1.90;;;31.60;96.30;;;;;;5050515;28;20181;-80
2023/08/18 10:25:06;;;;;;;4.37;1.50;;;31.60;97.30;;;;;;5068303;28;20199;-80
2023/08/18 10:27:36;;;;;;;2.80;1.63;;;31.60;97.20;;;;;;5050092;28;20417;-80
2023/08/18 10:30:26;;;;;;;3.27;2.20;;;31.50;96.60;;;;;;5034517;28;20426;-81
2023/08/18 10:32:52;;;;;;;5.00;2.03;;;31.50;97.00;;;;;;5050472;28;20429;-78
2023/08/18 10:35:26;;;;;;;4.60;1.90;;;31.50;96.50;;;;;;5034580;28;20432;-81
2023/08/18 10:37:58;;;;;;;7.67;2.00;;;31.50;96.50;;;;;;5051494;28;20427;-82
2023/08/18 10:40:33;;;;;;;1.97;1.70;;;31.50;97.20;;;;;;5052081;28;20801;-80
2023/08/18 10:43:03;;;;;;;3.83;1.70;;;31.50;97.50;;;;;;5034415;28;20432;-81
2023/08/18 10:45:29;;;;;;;1.90;1.30;;;31.70;97.40;;;;;;5051579;28;20417;-80
2023/08/18 10:48:05;;;;;;;3.33;1.80;;;31.80;97.60;;;;;;5051932;28;20510;-81
2023/08/18 10:50:35;;;;;;;3.50;1.60;;;31.90;97.70;;;;;;5036074;28;20424;-80
2023/08/18 10:53:03;;;;;;;3.63;1.50;;;31.90;98.30;;;;;;5034777;28;20455;-81
2023/08/18 10:55:30;;;;;;;3.67;1.53;;;31.90;98.00;;;;;;5051379;28;20428;-80
2023/08/18 10:57:55;;;;;;;2.53;1.77;;;32.00;97.90;;;;;;5051725;28;20528;-80
2023/08/18 11:00:21;;;;;;;2.40;1.63;;;32.00;97.80;;;;;;5050592;28;20997;-80
2023/08/18 11:02:49;;;;;;;2.00;1.20;;;32.00;99.90;;;;;;5050756;28;21016;-80
2023/08/18 11:05:21;;;;;;;6.17;2.53;;;32.00;99.90;;;;;;5050919;28;20413;-80
2023/08/18 11:07:47;;;;;;;4.90;1.77;;;31.90;99.00;;;;;;5050911;28;20413;-80
2023/08/18 11:10:23;;;;;;;1.53;1.20;;;32.00;97.70;;;;;;5034272;28;20440;-78
2023/08/18 11:12:52;;;;;;;2.80;2.10;;;32.00;96.60;;;;;;5068436;28;20414;-79
2023/08/18 11:15:20;;;;;;;2.20;1.50;;;32.00;95.70;;;;;;5069148;28;20906;-79
2023/08/18 11:17:46;;;;;;;6.93;1.53;;;32.00;96.00;;;;;;5069347;28;20421;-79
2023/08/18 11:20:12;;;;;;;4.50;2.20;;;32.00;95.30;;;;;;5069476;28;20469;-78
2023/08/18 11:22:39;;;;;;;6.50;1.63;;;32.00;94.80;;;;;;5051855;28;21206;-79
2023/08/18 11:25:06;;;;;;;1.60;1.23;;;31.90;94.80;;;;;;5070051;28;20872;-78
2023/08/18 11:27:32;;;;;;;2.50;1.70;;;31.90;94.50;;;;;;5070871;28;20405;-78
2023/08/18 11:29:59;;;;;;;3.30;1.30;;;32.00;94.00;;;;;;5071213;28;20428;-79
2023/08/18 11:32:25;;;;;;;3.57;1.33;;;31.90;92.20;;;;;;5055833;28;20837;-79
2023/08/18 11:34:51;;;;;;;3.50;1.77;;;32.10;93.10;;;;;;5072815;28;20452;-78
2023/08/18 11:37:23;;;;;;;4.00;1.53;;;32.00;91.90;;;;;;5069186;28;20413;-78
2023/08/18 11:39:49;;;;;;;3.83;1.40;;;31.80;92.50;;;;;;5068637;28;20461;-79
2023/08/18 11:42:17;;;;;;;3.93;1.47;;;31.90;92.70;;;;;;5068558;28;20505;-78
2023/08/18 11:44:43;;;;;;;3.83;2.00;;;32.00;91.60;;;;;;5050493;28;20667;-80
2023/08/18 11:47:09;;;;;;;6.57;1.77;;;32.00;91.20;;;;;;5050065;28;20894;-78
2023/08/18 11:49:35;;;;;;;4.13;1.30;;;32.10;92.60;;;;;;5068629;28;20421;-78
2023/08/18 11:52:05;;;;;;;3.83;1.63;;;32.30;92.30;;;;;;5068489;28;20187;-78
2023/08/18 11:54:36;;;;;;;1.73;1.20;;;32.30;92.60;;;;;;5033319;28;20476;-78
2023/08/18 11:57:06;;;;;;;9.30;2.20;;;32.40;93.50;;;;;;5050188;28;20449;-79
2023/08/18 11:59:32;;;;;;;5.17;1.47;;;32.40;92.40;;;;;;5068028;28;20472;-79
2023/08/18 12:02:00;;;;;;;3.33;1.50;;;32.30;91.10;;;;;;5068969;28;20425;-79
2023/08/18 12:04:26;;;;;;;3.53;1.37;;;32.30;92.00;;;;;;5050024;28;20445;-79
2023/08/18 12:06:53;;;;;;;3.33;1.50;;;32.20;92.80;;;;;;5049993;28;20425;-83
2023/08/18 12:09:20;;;;;;;2.80;2.00;;;32.20;91.60;;;;;;5069434;28;20426;-79
2023/08/18 12:11:46;;;;;;;4.17;1.53;;;32.20;91.40;;;;;;5069043;28;20784;-80
2023/08/18 12:14:12;;;;;;;2.17;1.50;;;32.10;90.60;;;;;;5050381;28;20445;-81
2023/08/18 12:16:37;;;;;;;2.80;1.67;;;32.10;92.20;;;;;;5050540;28;20186;-79
2023/08/18 12:19:04;;;;;;;4.80;1.53;;;32.10;92.10;;;;;;5050329;28;20231;-80
2023/08/18 12:21:31;;;;;;;2.63;1.87;;;32.10;92.40;;;;;;5050264;28;20232;-81
2023/08/18 12:23:57;;;;;;;5.70;1.90;;;32.10;91.90;;;;;;5050681;28;20999;-79
2023/08/18 12:26:22;;;;;;;3.97;1.70;;;32.10;91.90;;;;;;5054345;28;20413;-80
2023/08/18 12:28:48;;;;;;;4.77;1.63;;;32.10;92.30;;;;;;5054285;28;20424;-78
2023/08/18 12:31:14;;;;;;;5.00;1.90;;;31.90;91.50;;;;;;5054266;28;20651;-79
2023/08/18 12:33:40;;;;;;;4.70;1.57;;;32.00;91.20;;;;;;5055073;28;20194;-80
2023/08/18 12:36:05;;;;;;;5.43;1.63;;;32.10;92.00;;;;;;5073250;28;20935;-78
2023/08/18 12:38:31;;;;;;;4.40;1.70;;;32.00;91.90;;;;;;5072666;28;20183;-78
2023/08/18 12:40:57;;;;;;;5.00;1.57;;;32.10;91.20;;;;;;5055305;28;20211;-79
2023/08/18 12:43:22;;;;;;;5.10;2.13;;;32.10;92.10;;;;;;5054408;28;20230;-79